Time;durP1;ratioP1;P1;durP2;ratioP2;P2;SDS_P1;SDS_P2;PMS_P1;PMS_P2;Temp;Humidity;BMP_temperature;BMP_pressure;BME280_temperature;BME280_humidity;BME280_pressure;Samples;Min_cycle;Max_cycle;Signal;HPM_P1;HPM_P2
2021/07/02 03:01:27;;;;;;;3.85;1.73;;;24.40;62.00;;;;;;6060940;22;3280418;-51
2021/07/02 03:03:52;;;;;;;4.47;1.83;;;24.30;62.00;;;;;;6209978;23;20015;-50
2021/07/02 03:06:18;;;;;;;4.95;1.80;;;24.30;62.00;;;;;;6209947;23;20131;-52
2021/07/02 03:08:44;;;;;;;3.50;1.63;;;24.30;62.00;;;;;;6210252;23;20095;-52
2021/07/02 03:11:10;;;;;;;3.35;1.60;;;24.30;62.00;;;;;;6210263;23;20273;-51
2021/07/02 03:13:35;;;;;;;3.13;1.48;;;24.30;62.20;;;;;;6210249;23;20083;-51
2021/07/02 03:16:01;;;;;;;3.83;2.08;;;24.30;62.10;;;;;;6210205;23;20186;-51
2021/07/02 03:18:27;;;;;;;4.03;2.05;;;24.30;62.10;;;;;;6210028;23;19997;-51
2021/07/02 03:20:52;;;;;;;4.00;1.90;;;24.30;62.10;;;;;;6210107;23;20333;-52
2021/07/02 03:23:18;;;;;;;3.88;2.10;;;24.30;62.20;;;;;;6209825;23;20071;-50
2021/07/02 03:25:43;;;;;;;3.70;2.13;;;24.30;62.10;;;;;;6209635;23;20046;-50
2021/07/02 03:28:09;;;;;;;3.53;1.98;;;24.30;62.10;;;;;;6209980;23;20087;-51
2021/07/02 03:30:35;;;;;;;4.78;1.60;;;24.30;62.10;;;;;;6209745;23;20356;-51
2021/07/02 03:33:00;;;;;;;3.67;1.55;;;24.30;62.10;;;;;;6209867;23;20324;-50
2021/07/02 03:35:26;;;;;;;4.70;2.20;;;24.30;62.20;;;;;;6210013;23;20385;-51
2021/07/02 03:37:52;;;;;;;4.85;2.10;;;24.30;62.10;;;;;;6209882;23;20356;-51
2021/07/02 03:40:17;;;;;;;4.28;2.08;;;24.30;62.00;;;;;;6210137;23;20377;-51
2021/07/02 03:42:43;;;;;;;5.07;1.73;;;24.30;62.00;;;;;;6209862;23;20410;-51
2021/07/02 03:45:09;;;;;;;8.15;2.67;;;24.30;62.10;;;;;;6207779;23;20427;-52
2021/07/02 03:47:35;;;;;;;6.75;1.83;;;24.30;62.10;;;;;;6203530;23;20348;-51
2021/07/02 03:50:00;;;;;;;3.50;1.70;;;24.30;62.20;;;;;;6204943;23;20000;-51
2021/07/02 03:52:26;;;;;;;5.82;2.28;;;24.30;62.40;;;;;;6203962;23;20082;-51
2021/07/02 03:54:52;;;;;;;5.93;2.03;;;24.30;62.50;;;;;;6205786;23;20019;-51
2021/07/02 03:57:19;;;;;;;4.90;1.80;;;24.30;62.10;;;;;;6204081;23;20009;-51
2021/07/02 03:59:51;;;;;;;14.48;2.45;;;24.30;62.30;;;;;;6205818;23;20037;-52
2021/07/02 04:02:18;;;;;;;5.25;2.47;;;24.30;62.30;;;;;;6231583;23;20424;-51
2021/07/02 04:04:44;;;;;;;9.32;3.28;;;24.30;62.00;;;;;;6235688;22;20332;-51
2021/07/02 04:07:11;;;;;;;5.55;2.50;;;24.30;62.30;;;;;;6235673;22;20000;-52
2021/07/02 04:09:38;;;;;;;6.63;2.30;;;24.30;62.40;;;;;;6235572;22;20447;-51
2021/07/02 04:12:05;;;;;;;9.00;2.90;;;24.30;62.40;;;;;;6236048;22;20569;-50
2021/07/02 04:14:31;;;;;;;7.43;2.30;;;24.30;62.30;;;;;;6235525;22;20035;-51
2021/07/02 04:16:57;;;;;;;8.23;2.72;;;24.30;62.30;;;;;;6235798;22;20001;-51
2021/07/02 04:19:23;;;;;;;8.27;2.30;;;24.30;62.30;;;;;;6234083;23;20083;-51
2021/07/02 04:21:49;;;;;;;4.13;2.05;;;24.30;62.30;;;;;;6235764;22;20031;-51
2021/07/02 04:24:16;;;;;;;5.88;2.50;;;24.30;62.10;;;;;;6235136;22;20069;-51
2021/07/02 04:27:13;;;;;;;10.43;3.15;;;24.30;61.20;;;;;;5100842;27;20484;-52
2021/07/02 04:29:39;;;;;;;11.60;2.85;;;24.30;62.10;;;;;;5100828;28;20039;-52
2021/07/02 04:32:05;;;;;;;11.27;2.90;;;24.30;62.00;;;;;;5100624;28;20024;-52
2021/07/02 04:34:31;;;;;;;8.13;2.55;;;24.30;62.10;;;;;;5097558;28;20047;-52
2021/07/02 04:36:57;;;;;;;10.68;2.65;;;24.20;62.30;;;;;;5079557;28;20539;-52
2021/07/02 04:39:22;;;;;;;8.25;2.60;;;24.20;62.40;;;;;;5079545;28;20012;-51
2021/07/02 04:41:48;;;;;;;8.40;2.20;;;24.20;62.30;;;;;;5079374;28;20494;-51
2021/07/02 04:44:14;;;;;;;12.35;2.15;;;24.20;62.30;;;;;;5079199;28;20481;-51
2021/07/02 04:46:39;;;;;;;12.60;2.88;;;24.20;62.40;;;;;;5079910;28;20391;-53
2021/07/02 04:49:05;;;;;;;5.03;2.15;;;24.20;62.50;;;;;;5080103;28;20067;-52
2021/07/02 04:51:31;;;;;;;9.18;2.25;;;24.20;62.60;;;;;;5079609;28;20021;-52
2021/07/02 04:54:42;;;;;;;7.63;2.15;;;24.20;62.30;;;;;;5060321;28;20881;-52
2021/07/02 04:57:07;;;;;;;8.25;2.42;;;24.20;63.00;;;;;;5060331;28;20056;-52
2021/07/02 04:59:37;;;;;;;9.10;2.00;;;24.20;62.80;;;;;;5060231;28;20021;-51
2021/07/02 05:02:04;;;;;;;7.82;2.67;;;24.20;62.80;;;;;;5060243;28;20054;-51
2021/07/02 05:04:29;;;;;;;31.95;3.75;;;24.20;62.70;;;;;;5059965;28;20456;-52
2021/07/02 05:06:56;;;;;;;9.00;2.40;;;24.20;62.80;;;;;;5058216;28;20103;-51
2021/07/02 05:09:22;;;;;;;7.07;2.10;;;24.20;62.80;;;;;;5058706;28;20017;-52
2021/07/02 05:11:48;;;;;;;5.18;1.70;;;24.20;62.80;;;;;;5058500;28;20725;-52
2021/07/02 05:14:14;;;;;;;5.93;1.98;;;24.20;62.80;;;;;;5058366;28;20475;-52
2021/07/02 05:16:40;;;;;;;6.47;3.00;;;24.20;62.90;;;;;;5058352;28;20059;-51
2021/07/02 05:19:06;;;;;;;4.82;2.05;;;24.20;62.90;;;;;;5058444;28;20021;-51
2021/07/02 05:21:32;;;;;;;6.68;2.28;;;24.20;63.00;;;;;;5056957;28;20017;-52
2021/07/02 05:23:57;;;;;;;5.60;2.10;;;24.20;63.00;;;;;;5058150;28;20236;-51
2021/07/02 05:26:24;;;;;;;6.10;1.75;;;24.20;63.00;;;;;;5058133;28;20038;-52
2021/07/02 05:28:49;;;;;;;6.00;1.98;;;24.20;63.10;;;;;;5058142;28;20430;-51
2021/07/02 05:31:16;;;;;;;5.10;1.90;;;24.20;63.00;;;;;;5058093;28;20028;-52
2021/07/02 05:33:42;;;;;;;5.13;1.95;;;24.20;63.10;;;;;;5057891;28;20032;-51
2021/07/02 05:36:07;;;;;;;6.22;1.77;;;24.20;63.10;;;;;;5057779;28;20053;-52
2021/07/02 05:38:33;;;;;;;6.53;1.85;;;24.20;63.10;;;;;;5057979;28;20060;-51
2021/07/02 05:43:11;;;;;;;8.88;2.55;;;24.20;62.70;;;;;;5058663;28;20998;-52
2021/07/02 05:45:36;;;;;;;4.50;1.77;;;24.20;63.20;;;;;;5058373;28;20269;-51
2021/07/02 05:48:02;;;;;;;4.90;1.80;;;24.20;63.20;;;;;;5058364;28;20013;-51
2021/07/02 05:50:29;;;;;;;8.00;1.90;;;24.20;63.20;;;;;;5058464;28;20021;-52
2021/07/02 05:52:55;;;;;;;4.78;1.77;;;24.20;63.20;;;;;;5058261;28;20036;-52
2021/07/02 05:55:24;;;;;;;3.50;1.40;;;24.20;63.30;;;;;;5058269;28;20040;-52
2021/07/02 05:57:50;;;;;;;5.47;1.83;;;24.20;63.30;;;;;;5039775;28;20040;-51
2021/07/02 06:00:17;;;;;;;6.03;1.85;;;24.20;63.30;;;;;;5039587;28;20696;-51
2021/07/02 06:02:42;;;;;;;5.13;1.60;;;24.20;63.40;;;;;;5039957;28;20068;-52
2021/07/02 06:05:08;;;;;;;5.07;1.63;;;24.20;63.40;;;;;;5039872;28;20409;-51
2021/07/02 06:07:54;;;;;;;6.72;2.42;;;24.20;63.40;;;;;;5039915;28;20362;-51
2021/07/02 06:10:22;;;;;;;4.13;1.40;;;24.10;63.30;;;;;;5039915;28;20538;-52
2021/07/02 06:12:48;;;;;;;5.20;1.67;;;24.20;63.50;;;;;;5039823;28;20025;-52
2021/07/02 06:15:15;;;;;;;6.07;2.05;;;24.20;64.00;;;;;;5039770;28;20105;-51
2021/07/02 06:17:42;;;;;;;5.13;1.80;;;24.10;63.50;;;;;;5039726;28;20017;-52
2021/07/02 06:20:10;;;;;;;4.05;1.50;;;24.10;63.40;;;;;;5039767;28;20028;-51
2021/07/02 06:22:37;;;;;;;3.85;1.55;;;24.10;63.40;;;;;;5039579;28;20842;-51
2021/07/02 06:25:08;;;;;;;3.33;1.30;;;24.10;63.50;;;;;;5039622;28;20032;-51
2021/07/02 06:27:34;;;;;;;4.90;1.58;;;24.20;63.60;;;;;;5038378;28;20384;-51
2021/07/02 06:30:00;;;;;;;6.95;1.33;;;24.20;63.60;;;;;;5037920;28;20021;-51
2021/07/02 06:32:36;;;;;;;3.63;1.35;;;24.20;63.10;;;;;;5058666;28;20482;-52
2021/07/02 06:35:02;;;;;;;3.80;1.75;;;24.10;63.60;;;;;;5058606;28;20163;-52
2021/07/02 06:37:28;;;;;;;4.25;1.45;;;24.10;63.60;;;;;;5058602;28;20051;-52
2021/07/02 06:39:54;;;;;;;4.22;1.52;;;24.20;63.70;;;;;;5058634;28;20036;-51
2021/07/02 06:42:19;;;;;;;3.00;1.23;;;24.10;63.60;;;;;;5058420;28;20480;-51
2021/07/02 06:44:45;;;;;;;2.85;1.05;;;24.20;63.70;;;;;;5058227;28;20617;-51
2021/07/02 06:47:10;;;;;;;3.65;1.40;;;24.10;63.50;;;;;;5058373;28;20463;-52
2021/07/02 06:49:56;;;;;;;4.28;1.85;;;24.10;63.10;;;;;;5058745;28;20892;-52
2021/07/02 06:52:22;;;;;;;5.60;1.67;;;24.10;63.70;;;;;;5058623;28;20052;-52
2021/07/02 06:54:47;;;;;;;3.22;1.67;;;24.10;63.70;;;;;;5058374;28;20033;-51
2021/07/02 06:57:15;;;;;;;4.32;1.17;;;24.10;63.60;;;;;;5058445;28;20112;-52
2021/07/02 06:59:40;;;;;;;3.15;1.17;;;24.10;63.70;;;;;;5058353;28;20098;-51
2021/07/02 07:02:12;;;;;;;4.28;1.85;;;24.10;63.70;;;;;;5058305;28;20368;-51
2021/07/02 07:04:38;;;;;;;3.78;1.50;;;24.10;63.70;;;;;;5058133;28;20100;-51
2021/07/02 07:07:09;;;;;;;3.38;1.15;;;24.20;63.80;;;;;;5058172;28;20024;-51
2021/07/02 07:09:35;;;;;;;3.80;1.58;;;24.10;63.70;;;;;;5058042;28;20055;-51
2021/07/02 07:12:01;;;;;;;4.50;1.30;;;24.10;63.70;;;;;;5058252;28;20028;-51
2021/07/02 07:14:27;;;;;;;3.65;1.52;;;24.10;63.80;;;;;;5058277;28;20025;-53
2021/07/02 07:16:53;;;;;;;3.20;1.27;;;24.10;63.70;;;;;;5058236;28;20125;-51
2021/07/02 07:19:23;;;;;;;2.85;1.30;;;24.10;63.80;;;;;;5058264;28;20107;-52
2021/07/02 07:21:48;;;;;;;2.67;1.05;;;24.10;63.80;;;;;;5058291;28;20049;-51
2021/07/02 07:24:14;;;;;;;2.53;1.00;;;24.10;63.80;;;;;;5058117;28;20078;-51
2021/07/02 07:26:39;;;;;;;3.90;1.20;;;24.10;63.90;;;;;;5058128;28;20117;-52
2021/07/02 07:29:49;;;;;;;3.63;1.10;;;24.10;63.30;;;;;;5078892;27;20429;-51
2021/07/02 07:32:14;;;;;;;2.97;1.38;;;24.10;63.90;;;;;;5078669;28;20060;-52
2021/07/02 07:37:09;;;;;;;2.95;1.17;;;24.10;63.90;;;;;;5078682;28;20052;-52
2021/07/02 07:39:35;;;;;;;2.78;1.02;;;24.10;63.90;;;;;;5078564;28;20079;-51
2021/07/02 07:42:01;;;;;;;3.05;1.30;;;24.10;63.90;;;;;;5078526;28;20281;-52
2021/07/02 07:44:27;;;;;;;4.10;1.10;;;24.10;63.90;;;;;;5078259;28;20021;-52
2021/07/02 07:47:17;;;;;;;3.63;1.70;;;24.10;63.50;;;;;;5058791;28;20484;-51
2021/07/02 07:49:44;;;;;;;3.83;1.17;;;24.10;64.00;;;;;;5058664;28;20044;-52
2021/07/02 07:54:36;;;;;;;3.75;1.30;;;24.10;64.10;;;;;;5058488;28;20386;-51
2021/07/02 07:57:02;;;;;;;3.25;1.00;;;24.10;64.00;;;;;;5058251;28;20021;-51
2021/07/02 07:59:29;;;;;;;2.75;1.08;;;24.10;64.00;;;;;;5058316;28;20025;-52
2021/07/02 08:02:15;;;;;;;2.72;1.15;;;24.10;63.50;;;;;;5119490;27;20493;-52
2021/07/02 08:04:41;;;;;;;3.17;1.40;;;24.10;64.00;;;;;;5119556;28;20145;-51
2021/07/02 08:07:06;;;;;;;2.88;0.80;;;24.10;64.00;;;;;;5119460;27;20045;-51
2021/07/02 08:09:32;;;;;;;2.63;1.05;;;24.10;64.00;;;;;;5119722;27;20024;-51
2021/07/02 08:11:58;;;;;;;4.00;1.13;;;24.10;64.00;;;;;;5119447;27;20015;-51
2021/07/02 08:14:23;;;;;;;2.85;0.95;;;24.10;63.90;;;;;;5119428;27;20015;-51
2021/07/02 08:16:49;;;;;;;3.08;1.10;;;24.10;64.00;;;;;;5119557;27;20012;-52
2021/07/02 08:19:15;;;;;;;3.10;1.20;;;24.10;64.00;;;;;;5119335;27;20424;-51
2021/07/02 08:21:40;;;;;;;2.90;1.20;;;24.10;64.00;;;;;;5119343;27;20043;-51
2021/07/02 08:24:06;;;;;;;2.35;1.00;;;24.10;64.50;;;;;;5119290;27;20015;-51
2021/07/02 08:26:31;;;;;;;3.63;1.10;;;24.10;64.00;;;;;;5119251;27;20537;-51
2021/07/02 08:31:41;;;;;;;;;;;24.10;64.00;;;;;;5099076;28;20430;-51
2021/07/02 08:34:08;;;;;;;4.28;1.77;;;24.10;64.00;;;;;;5108355;28;19908;-53
2021/07/02 08:36:33;;;;;;;3.80;1.27;;;24.10;64.00;;;;;;5120580;27;20027;-52
2021/07/02 08:39:00;;;;;;;2.90;1.35;;;24.10;64.00;;;;;;5120752;27;20020;-52
2021/07/02 08:41:25;;;;;;;3.22;1.08;;;24.10;64.10;;;;;;5120612;27;20043;-51
2021/07/02 08:43:51;;;;;;;3.33;1.20;;;24.10;64.00;;;;;;5120540;27;20151;-51
2021/07/02 08:46:20;;;;;;;2.75;0.90;;;24.10;64.10;;;;;;5120455;27;20503;-52
2021/07/02 08:48:47;;;;;;;2.38;0.90;;;24.10;64.00;;;;;;5120394;27;20094;-52
2021/07/02 08:51:14;;;;;;;2.42;0.93;;;24.10;64.10;;;;;;5120506;27;20030;-52
2021/07/02 08:53:40;;;;;;;2.85;0.88;;;24.10;64.10;;;;;;5120424;27;20034;-51
2021/07/02 08:56:07;;;;;;;3.40;1.20;;;24.10;64.10;;;;;;5120194;27;20023;-52
2021/07/02 08:58:33;;;;;;;2.80;1.02;;;24.10;64.00;;;;;;5120380;27;20463;-51
2021/07/02 09:00:59;;;;;;;2.33;0.98;;;24.10;64.10;;;;;;5119843;27;20131;-51
2021/07/02 09:03:32;;;;;;;3.40;1.13;;;24.10;64.10;;;;;;5120000;27;20032;-52
2021/07/02 09:06:12;;;;;;;3.05;1.00;;;24.10;64.10;;;;;;5120001;27;20011;-52
2021/07/02 09:08:39;;;;;;;3.20;1.25;;;24.10;64.10;;;;;;5119994;27;20042;-52
2021/07/02 09:11:31;;;;;;;3.10;0.93;;;24.10;64.10;;;;;;5119920;27;20015;-52
2021/07/02 09:13:58;;;;;;;3.70;1.10;;;24.10;64.10;;;;;;5104148;28;20067;-51
2021/07/02 09:16:27;;;;;;;2.97;1.25;;;24.10;64.10;;;;;;5106172;28;20019;-51
2021/07/02 09:18:54;;;;;;;2.67;0.90;;;24.10;64.10;;;;;;5106275;27;20020;-51
2021/07/02 09:21:27;;;;;;;2.17;0.82;;;24.10;64.70;;;;;;5106129;28;20070;-51
2021/07/02 09:23:57;;;;;;;2.90;1.13;;;24.10;64.10;;;;;;5106235;28;20065;-52
2021/07/02 09:26:37;;;;;;;3.10;1.40;;;24.10;64.10;;;;;;5105991;27;20019;-51
2021/07/02 09:29:32;;;;;;;2.60;0.90;;;24.10;63.90;;;;;;5105982;28;20023;-51
2021/07/02 09:31:59;;;;;;;3.90;1.27;;;24.10;63.90;;;;;;5096341;28;20080;-51
2021/07/02 09:34:51;;;;;;;3.38;1.17;;;24.10;64.00;;;;;;5105765;28;20015;-51
2021/07/02 09:37:28;;;;;;;3.47;0.90;;;24.10;64.10;;;;;;5105865;28;20547;-51
2021/07/02 09:39:54;;;;;;;2.85;0.90;;;24.10;64.10;;;;;;5105774;28;20067;-51
2021/07/02 09:42:22;;;;;;;2.45;1.00;;;24.10;64.20;;;;;;5105867;28;20043;-51
2021/07/02 09:45:08;;;;;;;2.33;0.90;;;24.10;64.20;;;;;;5105603;27;20022;-51
2021/07/02 09:47:34;;;;;;;3.03;1.02;;;24.10;64.30;;;;;;5105661;27;20028;-51
2021/07/02 09:50:12;;;;;;;2.63;1.13;;;24.10;64.20;;;;;;5105627;28;20475;-51
2021/07/02 09:52:49;;;;;;;3.42;1.10;;;24.10;64.20;;;;;;5105585;28;20032;-51
2021/07/02 09:55:17;;;;;;;2.58;1.10;;;24.10;64.30;;;;;;5105480;28;20028;-52
2021/07/02 09:57:43;;;;;;;2.72;0.93;;;24.10;64.20;;;;;;5105517;28;20122;-52
2021/07/02 10:00:11;;;;;;;4.15;1.02;;;24.10;64.20;;;;;;5105098;28;20118;-52
2021/07/02 10:02:38;;;;;;;3.22;1.25;;;24.10;64.20;;;;;;5105399;28;20084;-51
2021/07/02 10:05:05;;;;;;;3.65;0.90;;;24.10;64.20;;;;;;5105109;28;20020;-52
2021/07/02 10:07:31;;;;;;;3.10;1.02;;;24.10;64.20;;;;;;5105322;28;20061;-52
2021/07/02 10:09:57;;;;;;;3.08;1.00;;;24.10;64.30;;;;;;5105136;28;20090;-51
2021/07/02 10:12:23;;;;;;;3.10;1.17;;;24.10;64.30;;;;;;5105189;28;20119;-52
2021/07/02 10:14:50;;;;;;;2.20;0.90;;;24.10;64.20;;;;;;5105123;28;20106;-51
2021/07/02 10:17:18;;;;;;;3.70;1.10;;;24.10;64.30;;;;;;5105070;28;20062;-51
2021/07/02 10:19:46;;;;;;;2.88;0.82;;;24.10;64.30;;;;;;5104993;28;20031;-51
2021/07/02 10:22:14;;;;;;;3.13;1.08;;;24.10;64.20;;;;;;5104885;28;20649;-52
2021/07/02 10:24:41;;;;;;;2.75;1.05;;;24.10;64.30;;;;;;5103863;28;20043;-52
2021/07/02 10:27:08;;;;;;;2.60;1.10;;;24.10;64.30;;;;;;5104886;28;20056;-52
2021/07/02 10:29:34;;;;;;;2.65;0.93;;;24.10;64.30;;;;;;5104880;28;20030;-51
2021/07/02 10:32:00;;;;;;;2.10;0.85;;;24.10;64.30;;;;;;5104848;28;20019;-53
2021/07/02 10:34:26;;;;;;;3.13;1.23;;;24.10;64.30;;;;;;5104571;28;20451;-51
2021/07/02 10:38:05;;;;;;;4.47;1.40;;;24.10;63.80;;;;;;5100934;27;20492;-52
2021/07/02 10:40:36;;;;;;;6.88;1.30;;;24.10;64.30;;;;;;5100840;28;20032;-52
2021/07/02 10:43:10;;;;;;;2.38;0.93;;;24.10;64.30;;;;;;5100808;28;20016;-52
2021/07/02 10:45:38;;;;;;;2.40;0.98;;;24.10;64.30;;;;;;5100668;28;20020;-52
2021/07/02 10:48:04;;;;;;;3.67;1.17;;;24.10;64.30;;;;;;5100695;28;20016;-52
2021/07/02 10:50:44;;;;;;;2.80;1.00;;;24.00;64.30;;;;;;5100664;28;20067;-51
2021/07/02 10:53:29;;;;;;;2.90;1.10;;;24.10;64.30;;;;;;5100537;28;20024;-52
2021/07/02 10:55:56;;;;;;;2.80;1.00;;;24.10;64.40;;;;;;5100382;28;20422;-53
2021/07/02 10:58:22;;;;;;;3.88;1.08;;;24.00;64.40;;;;;;5100396;28;20031;-52
2021/07/02 11:01:11;;;;;;;2.80;1.15;;;24.10;64.40;;;;;;5100445;28;20024;-52
2021/07/02 11:05:46;;;;;;;2.70;0.98;;;24.00;63.90;;;;;;5060297;28;20488;-52
2021/07/02 11:08:42;;;;;;;3.58;1.40;;;24.10;64.40;;;;;;5060315;28;20056;-51
2021/07/02 11:11:08;;;;;;;2.67;1.40;;;24.10;64.40;;;;;;5060347;28;20096;-52
2021/07/02 11:14:07;;;;;;;3.80;1.20;;;24.10;64.50;;;;;;5060180;28;20039;-51
2021/07/02 11:16:33;;;;;;;2.47;1.00;;;24.10;64.60;;;;;;5059552;28;20025;-52
2021/07/02 11:19:23;;;;;;;4.03;1.20;;;24.10;64.50;;;;;;5059497;28;20700;-52
2021/07/02 11:22:28;;;;;;;2.60;1.00;;;24.10;64.50;;;;;;5058144;28;20017;-51
2021/07/02 11:25:18;;;;;;;4.43;1.10;;;24.10;64.50;;;;;;5058431;28;20060;-52
2021/07/02 11:27:49;;;;;;;7.07;1.08;;;24.10;64.60;;;;;;5058747;28;20086;-51
2021/07/02 11:31:45;;;;;;;3.03;0.80;;;24.10;64.00;;;;;;5060031;28;20484;-52
2021/07/02 11:34:13;;;;;;;2.65;1.10;;;24.10;64.50;;;;;;5050570;28;20060;-53
2021/07/02 11:36:39;;;;;;;4.25;1.30;;;24.10;64.50;;;;;;5029190;28;20027;-52
2021/07/02 11:39:04;;;;;;;3.75;1.30;;;24.10;64.60;;;;;;5031023;28;20104;-51
2021/07/02 11:41:32;;;;;;;2.90;1.10;;;24.10;64.60;;;;;;5028938;28;20101;-51
2021/07/02 11:44:01;;;;;;;2.63;0.93;;;24.10;64.60;;;;;;5029291;28;20021;-51
2021/07/02 11:46:27;;;;;;;4.07;1.13;;;24.10;64.60;;;;;;5030271;28;20019;-51
2021/07/02 11:48:55;;;;;;;3.47;1.35;;;24.00;64.50;;;;;;5028550;28;20105;-52
2021/07/02 11:51:24;;;;;;;2.95;1.17;;;24.10;64.70;;;;;;5028723;28;20105;-52
2021/07/02 11:54:04;;;;;;;2.72;1.00;;;24.00;64.70;;;;;;5025981;28;20021;-53
2021/07/02 11:56:31;;;;;;;3.85;1.10;;;24.10;64.80;;;;;;5025682;28;20388;-53
2021/07/02 11:59:02;;;;;;;3.22;1.38;;;24.10;64.80;;;;;;5026394;28;20105;-51
2021/07/02 12:01:39;;;;;;;3.08;1.35;;;24.10;65.00;;;;;;5039804;28;20435;-52
2021/07/02 12:04:13;;;;;;;7.03;1.30;;;24.10;64.90;;;;;;5039681;28;20021;-52
2021/07/02 12:06:42;;;;;;;4.85;1.45;;;24.10;64.80;;;;;;5039436;28;20061;-53
2021/07/02 12:09:08;;;;;;;4.30;1.30;;;24.10;64.70;;;;;;5037291;28;20114;-53
2021/07/02 12:11:40;;;;;;;3.40;1.25;;;24.20;64.60;;;;;;5022002;28;20059;-53
2021/07/02 12:14:10;;;;;;;4.63;1.10;;;24.10;64.50;;;;;;5000023;28;20026;-53
2021/07/02 12:16:44;;;;;;;5.47;1.52;;;24.10;64.40;;;;;;5015529;28;20041;-53
2021/07/02 12:19:15;;;;;;;3.83;1.02;;;24.10;64.30;;;;;;5019643;28;20029;-53
2021/07/02 12:21:48;;;;;;;3.85;1.40;;;24.20;64.30;;;;;;5019627;28;20054;-53
2021/07/02 12:24:17;;;;;;;4.68;1.60;;;24.20;64.20;;;;;;5019557;28;20113;-53
2021/07/02 12:26:51;;;;;;;6.35;3.22;;;24.20;64.20;;;;;;5019335;28;20148;-54
2021/07/02 12:29:16;;;;;;;6.20;3.35;;;24.20;64.20;;;;;;5019547;28;20092;-53
2021/07/02 12:31:47;;;;;;;4.80;2.35;;;24.20;64.20;;;;;;5019244;28;20042;-53
2021/07/02 12:34:21;;;;;;;10.23;7.13;;;24.20;64.10;;;;;;5019355;28;20680;-53
2021/07/02 12:37:00;;;;;;;7.13;4.35;;;24.20;64.90;;;;;;5019408;28;20045;-53
2021/07/02 12:39:31;;;;;;;9.00;4.53;;;24.20;64.80;;;;;;5012063;28;20057;-53
2021/07/02 12:42:54;;;;;;;10.30;5.80;;;24.30;64.30;;;;;;5054446;27;2406099;-53
2021/07/02 12:45:21;;;;;;;10.82;5.93;;;24.20;65.00;;;;;;5105885;27;20035;-53
2021/07/02 12:47:47;;;;;;;7.55;4.95;;;24.30;65.00;;;;;;5072104;28;20114;-52
2021/07/02 12:50:22;;;;;;;12.82;5.72;;;24.20;64.90;;;;;;5084699;28;20028;-53
2021/07/02 12:55:38;;;;;;;11.65;4.32;;;24.30;65.20;;;;;;5115567;28;20389;-53
2021/07/02 12:58:06;;;;;;;13.07;4.40;;;24.30;65.20;;;;;;5115372;28;20088;-53
2021/07/02 13:00:36;;;;;;;9.93;4.22;;;24.30;65.10;;;;;;5112401;28;20046;-53
2021/07/02 13:03:13;;;;;;;14.13;4.78;;;24.30;65.10;;;;;;5113913;28;20042;-53
2021/07/02 13:05:41;;;;;;;9.60;5.05;;;24.30;65.20;;;;;;5115460;27;20027;-53
2021/07/02 13:08:10;;;;;;;14.18;5.47;;;24.30;65.40;;;;;;5109537;28;20074;-52
2021/07/02 13:10:52;;;;;;;10.70;3.80;;;24.30;65.40;;;;;;5115128;27;20027;-53
2021/07/02 13:13:26;;;;;;;11.07;3.97;;;24.30;65.20;;;;;;5105910;27;20031;-53
2021/07/02 13:15:58;;;;;;;13.75;4.47;;;24.30;65.20;;;;;;5095021;28;20024;-53
2021/07/02 13:18:52;;;;;;;10.05;4.32;;;24.30;65.30;;;;;;5094753;28;20497;-53
2021/07/02 13:21:35;;;;;;;9.40;4.13;;;24.30;65.30;;;;;;5093990;28;20654;-52
2021/07/02 13:24:21;;;;;;;15.90;4.80;;;24.30;64.80;;;;;;5135624;27;20111;-53
2021/07/02 13:26:58;;;;;;;19.40;4.97;;;24.30;65.40;;;;;;5115739;27;20483;-53
2021/07/02 13:29:31;;;;;;;11.52;4.18;;;24.30;65.30;;;;;;5115683;28;20221;-53
2021/07/02 13:31:59;;;;;;;11.02;3.88;;;24.30;65.40;;;;;;5105653;28;20058;-53
2021/07/02 13:37:04;;;;;;;9.02;4.43;;;24.20;65.00;;;;;;5032435;27;3166635;-53
2021/07/02 13:39:44;;;;;;;8.63;3.95;;;24.30;65.50;;;;;;5115601;28;20130;-53
2021/07/02 13:42:26;;;;;;;8.13;3.85;;;24.20;65.40;;;;;;5115888;27;20031;-53
2021/07/02 13:45:05;;;;;;;8.13;4.15;;;24.20;65.30;;;;;;5098979;28;20067;-53
2021/07/02 13:47:37;;;;;;;8.70;3.35;;;24.30;65.40;;;;;;5113766;28;20030;-53
2021/07/02 13:50:06;;;;;;;8.70;3.63;;;24.20;65.90;;;;;;5097517;28;20027;-53
2021/07/02 13:52:33;;;;;;;5.70;3.20;;;24.20;65.40;;;;;;5115782;27;20034;-53
2021/07/02 13:55:00;;;;;;;5.75;3.30;;;24.20;65.40;;;;;;5115554;27;20104;-53
2021/07/02 13:57:27;;;;;;;5.97;3.00;;;24.30;65.40;;;;;;5114050;28;20039;-53
2021/07/02 13:59:57;;;;;;;7.40;3.65;;;24.30;65.40;;;;;;5115539;27;20187;-52
2021/07/02 14:02:28;;;;;;;10.50;3.55;;;24.30;65.50;;;;;;5115467;27;20035;-53
2021/07/02 14:04:55;;;;;;;7.97;3.53;;;24.20;65.50;;;;;;5115415;27;20027;-53
2021/07/02 14:07:22;;;;;;;5.97;3.22;;;24.20;65.40;;;;;;5115213;27;20016;-53
2021/07/02 14:10:16;;;;;;;4.78;2.78;;;24.20;64.70;;;;;;4944909;27;4945118;-53
2021/07/02 14:12:43;;;;;;;5.53;3.28;;;24.20;65.50;;;;;;5094046;28;20087;-53
2021/07/02 14:15:09;;;;;;;8.77;3.70;;;24.20;65.60;;;;;;5078355;28;20059;-52
2021/07/02 14:17:36;;;;;;;6.28;3.40;;;24.30;66.30;;;;;;5074940;28;20103;-53
2021/07/02 14:20:03;;;;;;;7.93;3.33;;;24.30;65.80;;;;;;5074897;28;20032;-53
2021/07/02 14:22:32;;;;;;;9.40;3.33;;;24.30;65.60;;;;;;5074871;28;20028;-53
2021/07/02 14:24:58;;;;;;;6.95;3.55;;;24.30;65.70;;;;;;5074936;28;20017;-53
2021/07/02 14:27:24;;;;;;;6.53;3.03;;;24.20;65.50;;;;;;5074896;28;20028;-52
2021/07/02 14:29:51;;;;;;;8.07;3.22;;;24.30;65.20;;;;;;5074872;28;20067;-53
2021/07/02 14:32:19;;;;;;;5.55;2.60;;;24.30;65.50;;;;;;5074613;28;20028;-53
2021/07/02 14:36:11;;;;;;;7.75;3.47;;;24.20;65.00;;;;;;5140543;27;20329;-53
2021/07/02 14:38:39;;;;;;;6.68;3.20;;;24.30;65.60;;;;;;5136467;27;20121;-53
2021/07/02 14:41:08;;;;;;;8.23;2.95;;;24.30;65.70;;;;;;5136487;27;20536;-53
2021/07/02 14:43:35;;;;;;;7.90;3.10;;;24.30;65.80;;;;;;5118230;27;20248;-53
2021/07/02 14:46:03;;;;;;;7.60;2.92;;;24.30;65.90;;;;;;5136448;27;20015;-52
2021/07/02 14:48:29;;;;;;;9.60;4.30;;;24.20;65.80;;;;;;5136486;27;20018;-53
2021/07/02 14:50:59;;;;;;;6.88;2.88;;;24.30;65.80;;;;;;5136306;27;20022;-53
2021/07/02 14:53:29;;;;;;;6.03;2.60;;;24.30;65.80;;;;;;5136150;27;20042;-53
2021/07/02 14:55:57;;;;;;;7.63;3.30;;;24.30;65.50;;;;;;5135896;27;20045;-53
2021/07/02 14:58:24;;;;;;;7.15;2.83;;;24.30;65.70;;;;;;5136068;27;20022;-53
2021/07/02 15:00:50;;;;;;;6.82;2.88;;;24.30;65.90;;;;;;5135881;27;20031;-52
2021/07/02 15:03:16;;;;;;;8.32;3.35;;;24.30;65.80;;;;;;5135693;27;20080;-53
2021/07/02 15:05:43;;;;;;;6.90;2.50;;;24.30;65.80;;;;;;5117127;27;20427;-53
2021/07/02 15:08:09;;;;;;;7.97;3.58;;;24.20;65.70;;;;;;5135846;27;20035;-53
2021/07/02 15:10:35;;;;;;;6.65;2.55;;;24.30;65.60;;;;;;5135642;27;20022;-52
2021/07/02 15:13:02;;;;;;;5.68;2.90;;;24.30;65.70;;;;;;5116946;27;20073;-53
2021/07/02 15:15:28;;;;;;;7.65;2.88;;;24.30;65.80;;;;;;5116648;27;20047;-53
2021/07/02 15:17:54;;;;;;;5.82;2.85;;;24.30;65.90;;;;;;5135472;27;20380;-53
2021/07/02 15:20:23;;;;;;;7.13;3.22;;;24.30;65.50;;;;;;5135319;27;20007;-53
2021/07/02 15:22:50;;;;;;;6.07;2.72;;;24.30;65.70;;;;;;5135211;27;20080;-53
2021/07/02 15:25:16;;;;;;;9.57;3.83;;;24.20;65.90;;;;;;5135284;27;20854;-53
2021/07/02 15:27:42;;;;;;;6.60;2.60;;;24.20;65.90;;;;;;5135103;27;20101;-53
2021/07/02 15:30:46;;;;;;;6.18;2.95;;;24.30;66.00;;;;;;5135142;27;20050;-53
2021/07/02 15:33:12;;;;;;;5.75;2.70;;;24.30;65.80;;;;;;5134891;27;20047;-53
2021/07/02 15:35:40;;;;;;;7.53;2.85;;;24.30;65.50;;;;;;5134550;27;20054;-53
2021/07/02 15:38:07;;;;;;;5.95;2.78;;;24.30;65.80;;;;;;5134686;27;20023;-53
2021/07/02 15:40:33;;;;;;;4.57;2.38;;;24.30;65.90;;;;;;5121485;27;20035;-52
2021/07/02 15:42:59;;;;;;;6.25;2.38;;;24.30;65.90;;;;;;5125412;27;20723;-53
2021/07/02 15:46:40;;;;;;;5.63;2.55;;;24.30;65.20;;;;;;5036330;28;20532;-53
2021/07/02 15:49:07;;;;;;;6.20;2.50;;;24.20;65.70;;;;;;5031542;28;20037;-52
2021/07/02 15:51:33;;;;;;;5.45;2.38;;;24.30;65.70;;;;;;5030113;28;21008;-53
2021/07/02 15:54:01;;;;;;;4.10;2.15;;;24.30;65.50;;;;;;5024513;28;20060;-53
2021/07/02 15:56:27;;;;;;;6.72;2.58;;;24.20;65.20;;;;;;5021141;28;20045;-52
2021/07/02 15:58:53;;;;;;;13.07;2.70;;;24.20;65.20;;;;;;5020877;28;20053;-52
2021/07/02 16:01:20;;;;;;;4.63;2.17;;;24.20;65.10;;;;;;5030863;28;20732;-52
2021/07/02 16:03:52;;;;;;;5.95;2.38;;;24.20;65.30;;;;;;5023372;28;20047;-52
2021/07/02 16:06:18;;;;;;;6.05;2.60;;;24.30;65.40;;;;;;5024394;28;20065;-52
2021/07/02 16:08:44;;;;;;;8.27;2.65;;;24.30;65.40;;;;;;5023019;28;20017;-53
2021/07/02 16:11:11;;;;;;;9.85;2.40;;;24.30;65.40;;;;;;5031034;28;20036;-53
2021/07/02 16:13:39;;;;;;;7.47;2.80;;;24.20;65.40;;;;;;5018640;28;20033;-52
2021/07/02 16:16:06;;;;;;;9.25;2.92;;;24.20;65.50;;;;;;5031567;28;20041;-53
2021/07/02 16:18:33;;;;;;;10.23;2.60;;;24.30;65.70;;;;;;5024166;28;20026;-53
2021/07/02 16:20:59;;;;;;;10.15;2.65;;;24.30;65.70;;;;;;5027126;28;20076;-53